sensor_id;sensor_type;location;lat;lon;timestamp;P1;durP1;ratioP1;P2;durP2;ratioP2
4831;SDS011;2430;51.322;7.864;2022-12-22T00:00:39;1.20;;;1.10;;
4831;SDS011;2430;51.322;7.864;2022-12-22T00:03:24;1.40;;;1.30;;
4831;SDS011;2430;51.322;7.864;2022-12-22T00:06:09;1.20;;;1.10;;
4831;SDS011;2430;51.322;7.864;2022-12-22T00:08:53;2.87;;;1.30;;
4831;SDS011;2430;51.322;7.864;2022-12-22T00:11:37;1.27;;;1.17;;
4831;SDS011;2430;51.322;7.864;2022-12-22T00:14:21;1.37;;;1.27;;
4831;SDS011;2430;51.322;7.864;2022-12-22T00:17:07;0.83;;;0.83;;
4831;SDS011;2430;51.322;7.864;2022-12-22T00:19:57;1.30;;;1.20;;
4831;SDS011;2430;51.322;7.864;2022-12-22T00:22:42;1.13;;;1.03;;
4831;SDS011;2430;51.322;7.864;2022-12-22T00:25:26;1.20;;;1.10;;
4831;SDS011;2430;51.322;7.864;2022-12-22T00:28:12;1.57;;;1.37;;
4831;SDS011;2430;51.322;7.864;2022-12-22T00:30:56;1.63;;;1.53;;
4831;SDS011;2430;51.322;7.864;2022-12-22T00:33:40;1.53;;;1.43;;
4831;SDS011;2430;51.322;7.864;2022-12-22T00:36:24;1.60;;;1.50;;
4831;SDS011;2430;51.322;7.864;2022-12-22T00:39:11;1.77;;;1.67;;
4831;SDS011;2430;51.322;7.864;2022-12-22T00:41:56;4.17;;;1.70;;
4831;SDS011;2430;51.322;7.864;2022-12-22T00:44:40;1.53;;;1.43;;
4831;SDS011;2430;51.322;7.864;2022-12-22T00:47:24;3.13;;;2.40;;
4831;SDS011;2430;51.322;7.864;2022-12-22T00:50:09;6.77;;;2.00;;
4831;SDS011;2430;51.322;7.864;2022-12-22T00:52:53;1.53;;;1.43;;
4831;SDS011;2430;51.322;7.864;2022-12-22T00:55:39;3.00;;;2.20;;
4831;SDS011;2430;51.322;7.864;2022-12-22T00:58:23;16.73;;;5.70;;
4831;SDS011;2430;51.322;7.864;2022-12-22T01:01:07;6.47;;;3.80;;
4831;SDS011;2430;51.322;7.864;2022-12-22T01:03:51;4.23;;;3.73;;
4831;SDS011;2430;51.322;7.864;2022-12-22T01:06:35;3.83;;;3.03;;
4831;SDS011;2430;51.322;7.864;2022-12-22T01:09:19;9.97;;;4.00;;
4831;SDS011;2430;51.322;7.864;2022-12-22T01:12:08;1.70;;;1.50;;
4831;SDS011;2430;51.322;7.864;2022-12-22T01:14:53;2.40;;;2.13;;
4831;SDS011;2430;51.322;7.864;2022-12-22T01:17:37;1.20;;;1.10;;
4831;SDS011;2430;51.322;7.864;2022-12-22T01:20:21;1.00;;;1.00;;
4831;SDS011;2430;51.322;7.864;2022-12-22T01:23:06;1.33;;;1.17;;
4831;SDS011;2430;51.322;7.864;2022-12-22T01:25:50;0.90;;;0.90;;
4831;SDS011;2430;51.322;7.864;2022-12-22T01:28:36;1.10;;;1.00;;
4831;SDS011;2430;51.322;7.864;2022-12-22T01:31:22;0.90;;;0.90;;
4831;SDS011;2430;51.322;7.864;2022-12-22T01:34:09;1.30;;;1.20;;
4831;SDS011;2430;51.322;7.864;2022-12-22T01:36:53;19.97;;;1.20;;
4831;SDS011;2430;51.322;7.864;2022-12-22T01:39:37;1.40;;;1.30;;
4831;SDS011;2430;51.322;7.864;2022-12-22T01:42:21;1.23;;;1.10;;
4831;SDS011;2430;51.322;7.864;2022-12-22T01:45:13;1.00;;;0.90;;
4831;SDS011;2430;51.322;7.864;2022-12-22T01:47:59;1.00;;;0.90;;
4831;SDS011;2430;51.322;7.864;2022-12-22T01:50:43;1.20;;;1.10;;
4831;SDS011;2430;51.322;7.864;2022-12-22T01:53:27;1.33;;;1.23;;
4831;SDS011;2430;51.322;7.864;2022-12-22T01:56:12;1.30;;;1.20;;
4831;SDS011;2430;51.322;7.864;2022-12-22T01:58:56;1.27;;;1.17;;
4831;SDS011;2430;51.322;7.864;2022-12-22T02:01:42;0.93;;;0.83;;
4831;SDS011;2430;51.322;7.864;2022-12-22T02:04:26;1.27;;;1.17;;
4831;SDS011;2430;51.322;7.864;2022-12-22T02:07:27;1.13;;;1.03;;
4831;SDS011;2430;51.322;7.864;2022-12-22T02:10:20;7.77;;;1.30;;
4831;SDS011;2430;51.322;7.864;2022-12-22T02:13:08;0.87;;;0.87;;
4831;SDS011;2430;51.322;7.864;2022-12-22T02:15:56;1.30;;;1.20;;
4831;SDS011;2430;51.322;7.864;2022-12-22T02:18:47;0.70;;;0.70;;
4831;SDS011;2430;51.322;7.864;2022-12-22T02:21:35;1.20;;;1.10;;
4831;SDS011;2430;51.322;7.864;2022-12-22T02:24:23;1.00;;;0.90;;
4831;SDS011;2430;51.322;7.864;2022-12-22T02:27:12;1.00;;;0.90;;
4831;SDS011;2430;51.322;7.864;2022-12-22T02:29:58;1.60;;;1.30;;
4831;SDS011;2430;51.322;7.864;2022-12-22T02:32:44;1.10;;;1.00;;
4831;SDS011;2430;51.322;7.864;2022-12-22T02:35:28;0.80;;;0.80;;
4831;SDS011;2430;51.322;7.864;2022-12-22T02:38:17;1.40;;;1.10;;
4831;SDS011;2430;51.322;7.864;2022-12-22T02:41:08;1.17;;;0.90;;
4831;SDS011;2430;51.322;7.864;2022-12-22T02:43:59;0.80;;;0.70;;
4831;SDS011;2430;51.322;7.864;2022-12-22T02:46:50;1.10;;;1.00;;
4831;SDS011;2430;51.322;7.864;2022-12-22T02:49:37;0.80;;;0.77;;
4831;SDS011;2430;51.322;7.864;2022-12-22T02:52:23;0.60;;;0.60;;
4831;SDS011;2430;51.322;7.864;2022-12-22T02:55:10;0.80;;;0.63;;
4831;SDS011;2430;51.322;7.864;2022-12-22T02:57:56;0.83;;;0.83;;
4831;SDS011;2430;51.322;7.864;2022-12-22T03:00:42;1.03;;;0.80;;
4831;SDS011;2430;51.322;7.864;2022-12-22T03:03:26;0.90;;;0.90;;
4831;SDS011;2430;51.322;7.864;2022-12-22T03:06:10;0.80;;;0.80;;
4831;SDS011;2430;51.322;7.864;2022-12-22T03:08:54;0.77;;;0.77;;
4831;SDS011;2430;51.322;7.864;2022-12-22T03:11:38;0.80;;;0.73;;
4831;SDS011;2430;51.322;7.864;2022-12-22T03:14:22;0.80;;;0.80;;
4831;SDS011;2430;51.322;7.864;2022-12-22T03:17:07;1.20;;;0.73;;
4831;SDS011;2430;51.322;7.864;2022-12-22T03:19:52;0.77;;;0.77;;
4831;SDS011;2430;51.322;7.864;2022-12-22T03:22:36;1.10;;;1.00;;
4831;SDS011;2430;51.322;7.864;2022-12-22T03:25:19;0.80;;;0.63;;
4831;SDS011;2430;51.322;7.864;2022-12-22T03:28:04;1.20;;;1.10;;
4831;SDS011;2430;51.322;7.864;2022-12-22T03:30:33;1.43;;;0.90;;
4831;SDS011;2430;51.322;7.864;2022-12-22T03:33:01;0.90;;;0.73;;
4831;SDS011;2430;51.322;7.864;2022-12-22T03:35:27;1.00;;;1.00;;
4831;SDS011;2430;51.322;7.864;2022-12-22T03:37:54;0.80;;;0.80;;
4831;SDS011;2430;51.322;7.864;2022-12-22T03:40:20;1.00;;;1.00;;
4831;SDS011;2430;51.322;7.864;2022-12-22T03:42:46;0.83;;;0.83;;
4831;SDS011;2430;51.322;7.864;2022-12-22T03:45:30;0.80;;;0.77;;
4831;SDS011;2430;51.322;7.864;2022-12-22T03:48:16;0.90;;;0.87;;
4831;SDS011;2430;51.322;7.864;2022-12-22T03:50:42;0.90;;;0.73;;
4831;SDS011;2430;51.322;7.864;2022-12-22T03:53:09;3.50;;;0.90;;
4831;SDS011;2430;51.322;7.864;2022-12-22T03:55:35;0.90;;;0.70;;
4831;SDS011;2430;51.322;7.864;2022-12-22T03:58:02;0.70;;;0.70;;
4831;SDS011;2430;51.322;7.864;2022-12-22T04:00:28;1.00;;;0.90;;
4831;SDS011;2430;51.322;7.864;2022-12-22T04:02:56;0.77;;;0.77;;
4831;SDS011;2430;51.322;7.864;2022-12-22T04:05:24;0.80;;;0.80;;
4831;SDS011;2430;51.322;7.864;2022-12-22T04:07:50;3.10;;;0.63;;
4831;SDS011;2430;51.322;7.864;2022-12-22T04:10:16;1.23;;;0.90;;
4831;SDS011;2430;51.322;7.864;2022-12-22T04:13:01;0.90;;;0.90;;
4831;SDS011;2430;51.322;7.864;2022-12-22T04:15:28;1.03;;;0.80;;
4831;SDS011;2430;51.322;7.864;2022-12-22T04:17:55;0.90;;;0.90;;
4831;SDS011;2430;51.322;7.864;2022-12-22T04:20:22;0.90;;;0.80;;
4831;SDS011;2430;51.322;7.864;2022-12-22T04:22:52;1.00;;;0.80;;
4831;SDS011;2430;51.322;7.864;2022-12-22T04:25:19;0.80;;;0.80;;
4831;SDS011;2430;51.322;7.864;2022-12-22T04:27:46;1.53;;;1.20;;
4831;SDS011;2430;51.322;7.864;2022-12-22T04:30:13;1.10;;;1.00;;
4831;SDS011;2430;51.322;7.864;2022-12-22T04:32:39;1.40;;;1.13;;
4831;SDS011;2430;51.322;7.864;2022-12-22T04:35:06;4.13;;;1.93;;
4831;SDS011;2430;51.322;7.864;2022-12-22T04:37:33;6.33;;;4.13;;
4831;SDS011;2430;51.322;7.864;2022-12-22T04:40:01;5.83;;;3.63;;
4831;SDS011;2430;51.322;7.864;2022-12-22T04:42:28;4.70;;;2.37;;
4831;SDS011;2430;51.322;7.864;2022-12-22T04:44:55;2.63;;;2.40;;
4831;SDS011;2430;51.322;7.864;2022-12-22T04:47:21;2.40;;;2.10;;
4831;SDS011;2430;51.322;7.864;2022-12-22T04:49:50;3.13;;;2.03;;
4831;SDS011;2430;51.322;7.864;2022-12-22T04:52:19;2.63;;;2.40;;
4831;SDS011;2430;51.322;7.864;2022-12-22T04:54:46;3.40;;;1.87;;
4831;SDS011;2430;51.322;7.864;2022-12-22T04:57:15;1.30;;;1.13;;
4831;SDS011;2430;51.322;7.864;2022-12-22T04:59:42;1.33;;;1.23;;
4831;SDS011;2430;51.322;7.864;2022-12-22T05:02:08;1.47;;;1.30;;
4831;SDS011;2430;51.322;7.864;2022-12-22T05:04:35;1.40;;;1.23;;
4831;SDS011;2430;51.322;7.864;2022-12-22T05:07:02;1.10;;;1.00;;
4831;SDS011;2430;51.322;7.864;2022-12-22T05:09:29;1.23;;;1.10;;
4831;SDS011;2430;51.322;7.864;2022-12-22T05:11:56;1.27;;;1.10;;
4831;SDS011;2430;51.322;7.864;2022-12-22T05:14:24;2.87;;;1.73;;
4831;SDS011;2430;51.322;7.864;2022-12-22T05:16:51;1.20;;;1.10;;
4831;SDS011;2430;51.322;7.864;2022-12-22T05:19:18;1.90;;;1.23;;
4831;SDS011;2430;51.322;7.864;2022-12-22T05:21:45;13.43;;;0.90;;
4831;SDS011;2430;51.322;7.864;2022-12-22T05:24:11;0.70;;;0.67;;
4831;SDS011;2430;51.322;7.864;2022-12-22T05:26:38;1.23;;;0.70;;
4831;SDS011;2430;51.322;7.864;2022-12-22T05:29:05;1.10;;;0.90;;
4831;SDS011;2430;51.322;7.864;2022-12-22T05:31:33;1.43;;;0.83;;
4831;SDS011;2430;51.322;7.864;2022-12-22T05:34:00;0.70;;;0.70;;
4831;SDS011;2430;51.322;7.864;2022-12-22T05:36:27;0.83;;;0.80;;
4831;SDS011;2430;51.322;7.864;2022-12-22T05:38:54;0.70;;;0.60;;
4831;SDS011;2430;51.322;7.864;2022-12-22T05:41:20;0.70;;;0.63;;
4831;SDS011;2430;51.322;7.864;2022-12-22T05:43:47;2.37;;;1.33;;
4831;SDS011;2430;51.322;7.864;2022-12-22T05:46:13;3.90;;;1.67;;
4831;SDS011;2430;51.322;7.864;2022-12-22T05:48:41;1.03;;;0.83;;
4831;SDS011;2430;51.322;7.864;2022-12-22T05:51:08;0.73;;;0.73;;
4831;SDS011;2430;51.322;7.864;2022-12-22T05:53:35;0.87;;;0.60;;
4831;SDS011;2430;51.322;7.864;2022-12-22T05:56:02;0.60;;;0.60;;
4831;SDS011;2430;51.322;7.864;2022-12-22T05:58:29;1.67;;;1.57;;
4831;SDS011;2430;51.322;7.864;2022-12-22T06:00:57;1.70;;;0.97;;
4831;SDS011;2430;51.322;7.864;2022-12-22T06:03:24;1.10;;;0.90;;
4831;SDS011;2430;51.322;7.864;2022-12-22T06:05:52;1.17;;;1.07;;
4831;SDS011;2430;51.322;7.864;2022-12-22T06:08:19;1.13;;;0.83;;
4831;SDS011;2430;51.322;7.864;2022-12-22T06:10:45;1.40;;;0.80;;
4831;SDS011;2430;51.322;7.864;2022-12-22T06:13:12;0.70;;;0.70;;
4831;SDS011;2430;51.322;7.864;2022-12-22T06:15:39;0.97;;;0.97;;
4831;SDS011;2430;51.322;7.864;2022-12-22T06:18:06;1.47;;;1.20;;
4831;SDS011;2430;51.322;7.864;2022-12-22T06:20:33;1.23;;;0.80;;
4831;SDS011;2430;51.322;7.864;2022-12-22T06:23:01;1.10;;;1.00;;
4831;SDS011;2430;51.322;7.864;2022-12-22T06:25:27;1.57;;;1.47;;
4831;SDS011;2430;51.322;7.864;2022-12-22T06:27:54;1.20;;;1.00;;
4831;SDS011;2430;51.322;7.864;2022-12-22T06:30:21;1.50;;;1.30;;
4831;SDS011;2430;51.322;7.864;2022-12-22T06:32:48;1.30;;;1.20;;
4831;SDS011;2430;51.322;7.864;2022-12-22T06:35:14;1.00;;;0.90;;
4831;SDS011;2430;51.322;7.864;2022-12-22T06:37:43;1.63;;;1.20;;
4831;SDS011;2430;51.322;7.864;2022-12-22T06:40:11;1.30;;;1.20;;
4831;SDS011;2430;51.322;7.864;2022-12-22T06:42:38;2.17;;;1.40;;
4831;SDS011;2430;51.322;7.864;2022-12-22T06:45:22;1.40;;;1.30;;
4831;SDS011;2430;51.322;7.864;2022-12-22T06:47:48;1.30;;;1.20;;
4831;SDS011;2430;51.322;7.864;2022-12-22T06:50:15;2.03;;;1.80;;
4831;SDS011;2430;51.322;7.864;2022-12-22T06:52:41;4.17;;;1.70;;
4831;SDS011;2430;51.322;7.864;2022-12-22T06:55:08;2.13;;;1.93;;
4831;SDS011;2430;51.322;7.864;2022-12-22T06:57:36;3.77;;;2.27;;
4831;SDS011;2430;51.322;7.864;2022-12-22T07:00:03;2.63;;;1.90;;
4831;SDS011;2430;51.322;7.864;2022-12-22T07:02:29;2.80;;;2.40;;
4831;SDS011;2430;51.322;7.864;2022-12-22T07:04:56;2.23;;;2.07;;
4831;SDS011;2430;51.322;7.864;2022-12-22T07:07:22;2.60;;;2.27;;
4831;SDS011;2430;51.322;7.864;2022-12-22T07:09:49;2.27;;;2.00;;
4831;SDS011;2430;51.322;7.864;2022-12-22T07:12:15;4.27;;;2.40;;
4831;SDS011;2430;51.322;7.864;2022-12-22T07:14:43;2.50;;;2.30;;
4831;SDS011;2430;51.322;7.864;2022-12-22T07:17:09;2.23;;;2.03;;
4831;SDS011;2430;51.322;7.864;2022-12-22T07:19:36;1.80;;;1.70;;
4831;SDS011;2430;51.322;7.864;2022-12-22T07:22:02;7.30;;;1.90;;
4831;SDS011;2430;51.322;7.864;2022-12-22T07:24:29;9.50;;;2.23;;
4831;SDS011;2430;51.322;7.864;2022-12-22T07:26:55;1.63;;;1.53;;
4831;SDS011;2430;51.322;7.864;2022-12-22T07:29:22;2.20;;;2.03;;
4831;SDS011;2430;51.322;7.864;2022-12-22T07:31:50;2.83;;;2.40;;
4831;SDS011;2430;51.322;7.864;2022-12-22T07:34:16;2.30;;;1.97;;
4831;SDS011;2430;51.322;7.864;2022-12-22T07:36:43;2.30;;;2.20;;
4831;SDS011;2430;51.322;7.864;2022-12-22T07:39:10;2.40;;;2.20;;
4831;SDS011;2430;51.322;7.864;2022-12-22T07:41:36;2.10;;;2.00;;
4831;SDS011;2430;51.322;7.864;2022-12-22T07:44:20;2.97;;;2.30;;
4831;SDS011;2430;51.322;7.864;2022-12-22T07:46:47;3.40;;;2.70;;
4831;SDS011;2430;51.322;7.864;2022-12-22T07:49:15;2.87;;;2.67;;
4831;SDS011;2430;51.322;7.864;2022-12-22T07:51:59;18.27;;;3.83;;
4831;SDS011;2430;51.322;7.864;2022-12-22T07:54:26;2.70;;;2.30;;
4831;SDS011;2430;51.322;7.864;2022-12-22T07:56:53;3.67;;;2.53;;
4831;SDS011;2430;51.322;7.864;2022-12-22T07:59:21;4.40;;;3.00;;
4831;SDS011;2430;51.322;7.864;2022-12-22T08:01:48;4.70;;;2.70;;
4831;SDS011;2430;51.322;7.864;2022-12-22T08:04:16;7.83;;;2.50;;
4831;SDS011;2430;51.322;7.864;2022-12-22T08:06:42;2.60;;;1.80;;
4831;SDS011;2430;51.322;7.864;2022-12-22T08:09:11;5.83;;;3.07;;
4831;SDS011;2430;51.322;7.864;2022-12-22T08:11:38;4.70;;;3.63;;
4831;SDS011;2430;51.322;7.864;2022-12-22T08:14:05;2.70;;;2.50;;
4831;SDS011;2430;51.322;7.864;2022-12-22T08:16:31;3.63;;;2.93;;
4831;SDS011;2430;51.322;7.864;2022-12-22T08:18:58;2.73;;;2.53;;
4831;SDS011;2430;51.322;7.864;2022-12-22T08:21:26;4.53;;;3.00;;
4831;SDS011;2430;51.322;7.864;2022-12-22T08:23:52;3.27;;;2.73;;
4831;SDS011;2430;51.322;7.864;2022-12-22T08:26:20;4.63;;;2.20;;
4831;SDS011;2430;51.322;7.864;2022-12-22T08:28:48;4.30;;;2.60;;
4831;SDS011;2430;51.322;7.864;2022-12-22T08:31:15;2.83;;;2.60;;
4831;SDS011;2430;51.322;7.864;2022-12-22T08:33:42;2.07;;;1.90;;
4831;SDS011;2430;51.322;7.864;2022-12-22T08:36:09;1.57;;;1.47;;
4831;SDS011;2430;51.322;7.864;2022-12-22T08:38:37;1.60;;;1.50;;
4831;SDS011;2430;51.322;7.864;2022-12-22T08:41:04;1.77;;;1.67;;
4831;SDS011;2430;51.322;7.864;2022-12-22T08:43:32;1.47;;;1.27;;
4831;SDS011;2430;51.322;7.864;2022-12-22T08:45:58;1.53;;;1.17;;
4831;SDS011;2430;51.322;7.864;2022-12-22T08:48:25;1.27;;;1.17;;
4831;SDS011;2430;51.322;7.864;2022-12-22T08:50:51;1.70;;;1.57;;
4831;SDS011;2430;51.322;7.864;2022-12-22T08:53:18;2.93;;;1.33;;
4831;SDS011;2430;51.322;7.864;2022-12-22T08:55:50;1.40;;;1.23;;
4831;SDS011;2430;51.322;7.864;2022-12-22T08:58:18;1.00;;;1.00;;
4831;SDS011;2430;51.322;7.864;2022-12-22T09:00:44;1.37;;;1.10;;
4831;SDS011;2430;51.322;7.864;2022-12-22T09:03:11;1.67;;;1.57;;
4831;SDS011;2430;51.322;7.864;2022-12-22T09:05:37;2.43;;;1.83;;
4831;SDS011;2430;51.322;7.864;2022-12-22T09:08:04;1.53;;;1.43;;
4831;SDS011;2430;51.322;7.864;2022-12-22T09:10:30;2.43;;;2.03;;
4831;SDS011;2430;51.322;7.864;2022-12-22T09:12:58;1.57;;;1.47;;
4831;SDS011;2430;51.322;7.864;2022-12-22T09:15:25;2.40;;;2.10;;
4831;SDS011;2430;51.322;7.864;2022-12-22T09:17:51;1.77;;;1.67;;
4831;SDS011;2430;51.322;7.864;2022-12-22T09:20:17;5.30;;;3.13;;
4831;SDS011;2430;51.322;7.864;2022-12-22T09:22:44;3.07;;;2.00;;
4831;SDS011;2430;51.322;7.864;2022-12-22T09:25:10;3.17;;;2.80;;
4831;SDS011;2430;51.322;7.864;2022-12-22T09:27:38;2.23;;;2.10;;
4831;SDS011;2430;51.322;7.864;2022-12-22T09:30:06;2.37;;;1.77;;
4831;SDS011;2430;51.322;7.864;2022-12-22T09:32:33;2.10;;;1.90;;
4831;SDS011;2430;51.322;7.864;2022-12-22T09:35:00;2.43;;;2.20;;
4831;SDS011;2430;51.322;7.864;2022-12-22T09:37:26;2.07;;;1.90;;
4831;SDS011;2430;51.322;7.864;2022-12-22T09:39:53;3.10;;;2.13;;
4831;SDS011;2430;51.322;7.864;2022-12-22T09:42:20;2.77;;;1.80;;
4831;SDS011;2430;51.322;7.864;2022-12-22T09:44:48;2.33;;;2.20;;
4831;SDS011;2430;51.322;7.864;2022-12-22T09:47:20;4.20;;;2.13;;
4831;SDS011;2430;51.322;7.864;2022-12-22T09:49:47;4.70;;;2.63;;
4831;SDS011;2430;51.322;7.864;2022-12-22T09:52:21;2.30;;;2.10;;
4831;SDS011;2430;51.322;7.864;2022-12-22T09:54:48;2.37;;;2.03;;
4831;SDS011;2430;51.322;7.864;2022-12-22T09:57:14;1.83;;;1.53;;
4831;SDS011;2430;51.322;7.864;2022-12-22T09:59:41;6.60;;;2.10;;
4831;SDS011;2430;51.322;7.864;2022-12-22T10:02:10;2.03;;;1.83;;
4831;SDS011;2430;51.322;7.864;2022-12-22T10:04:48;2.13;;;1.90;;
4831;SDS011;2430;51.322;7.864;2022-12-22T10:07:21;4.10;;;1.60;;
4831;SDS011;2430;51.322;7.864;2022-12-22T10:09:49;1.83;;;1.53;;
4831;SDS011;2430;51.322;7.864;2022-12-22T10:12:18;1.73;;;1.60;;
4831;SDS011;2430;51.322;7.864;2022-12-22T10:14:46;15.03;;;3.20;;
4831;SDS011;2430;51.322;7.864;2022-12-22T10:17:20;6.03;;;3.23;;
4831;SDS011;2430;51.322;7.864;2022-12-22T10:19:49;4.97;;;2.63;;
4831;SDS011;2430;51.322;7.864;2022-12-22T10:22:18;3.33;;;2.67;;
4831;SDS011;2430;51.322;7.864;2022-12-22T10:24:44;3.37;;;2.90;;
4831;SDS011;2430;51.322;7.864;2022-12-22T10:27:11;3.13;;;2.87;;
4831;SDS011;2430;51.322;7.864;2022-12-22T10:29:37;3.07;;;2.77;;
4831;SDS011;2430;51.322;7.864;2022-12-22T10:32:10;6.87;;;3.83;;
4831;SDS011;2430;51.322;7.864;2022-12-22T10:34:36;4.60;;;3.57;;
4831;SDS011;2430;51.322;7.864;2022-12-22T10:37:10;3.27;;;2.87;;
4831;SDS011;2430;51.322;7.864;2022-12-22T10:39:36;3.90;;;3.30;;
4831;SDS011;2430;51.322;7.864;2022-12-22T10:42:06;3.53;;;3.23;;
4831;SDS011;2430;51.322;7.864;2022-12-22T10:44:33;5.57;;;3.50;;
4831;SDS011;2430;51.322;7.864;2022-12-22T10:47:10;4.50;;;3.23;;
4831;SDS011;2430;51.322;7.864;2022-12-22T10:49:37;4.60;;;2.53;;
4831;SDS011;2430;51.322;7.864;2022-12-22T10:52:12;6.57;;;3.33;;
4831;SDS011;2430;51.322;7.864;2022-12-22T10:54:39;3.10;;;2.67;;
4831;SDS011;2430;51.322;7.864;2022-12-22T10:57:19;6.33;;;2.50;;
4831;SDS011;2430;51.322;7.864;2022-12-22T10:59:48;3.43;;;2.13;;
4831;SDS011;2430;51.322;7.864;2022-12-22T11:05:05;3.63;;;2.10;;
4831;SDS011;2430;51.322;7.864;2022-12-22T11:07:34;2.60;;;2.40;;
4831;SDS011;2430;51.322;7.864;2022-12-22T11:10:01;2.00;;;1.90;;
4831;SDS011;2430;51.322;7.864;2022-12-22T11:12:30;1.60;;;1.50;;
4831;SDS011;2430;51.322;7.864;2022-12-22T11:15:02;3.60;;;2.03;;
4831;SDS011;2430;51.322;7.864;2022-12-22T11:17:33;1.70;;;1.60;;
4831;SDS011;2430;51.322;7.864;2022-12-22T11:20:04;1.43;;;1.33;;
4831;SDS011;2430;51.322;7.864;2022-12-22T11:22:37;3.47;;;1.63;;
4831;SDS011;2430;51.322;7.864;2022-12-22T11:25:09;4.40;;;1.80;;
4831;SDS011;2430;51.322;7.864;2022-12-22T11:27:39;2.90;;;2.60;;
4831;SDS011;2430;51.322;7.864;2022-12-22T11:30:09;4.93;;;2.80;;
4831;SDS011;2430;51.322;7.864;2022-12-22T11:38:16;5.70;;;3.93;;
4831;SDS011;2430;51.322;7.864;2022-12-22T11:40:45;3.57;;;3.10;;
4831;SDS011;2430;51.322;7.864;2022-12-22T11:43:23;3.70;;;2.70;;
4831;SDS011;2430;51.322;7.864;2022-12-22T11:45:53;3.87;;;3.07;;
4831;SDS011;2430;51.322;7.864;2022-12-22T11:48:26;7.50;;;3.97;;
4831;SDS011;2430;51.322;7.864;2022-12-22T11:50:56;5.90;;;3.37;;
4831;SDS011;2430;51.322;7.864;2022-12-22T11:53:42;4.17;;;3.10;;
4831;SDS011;2430;51.322;7.864;2022-12-22T11:56:15;4.90;;;2.70;;
4831;SDS011;2430;51.322;7.864;2022-12-22T11:58:57;3.67;;;3.27;;
4831;SDS011;2430;51.322;7.864;2022-12-22T12:01:33;2.43;;;2.00;;
4831;SDS011;2430;51.322;7.864;2022-12-22T12:04:18;6.00;;;4.10;;
4831;SDS011;2430;51.322;7.864;2022-12-22T12:09:35;6.53;;;3.20;;
4831;SDS011;2430;51.322;7.864;2022-12-22T12:12:05;6.10;;;3.13;;
4831;SDS011;2430;51.322;7.864;2022-12-22T12:14:36;5.73;;;3.40;;
4831;SDS011;2430;51.322;7.864;2022-12-22T12:17:06;4.00;;;3.60;;
4831;SDS011;2430;51.322;7.864;2022-12-22T12:19:42;4.43;;;3.37;;
4831;SDS011;2430;51.322;7.864;2022-12-22T12:22:10;5.87;;;3.00;;
4831;SDS011;2430;51.322;7.864;2022-12-22T12:24:44;6.43;;;4.03;;
4831;SDS011;2430;51.322;7.864;2022-12-22T12:27:20;3.00;;;2.30;;
4831;SDS011;2430;51.322;7.864;2022-12-22T12:29:52;5.30;;;3.80;;
4831;SDS011;2430;51.322;7.864;2022-12-22T12:32:22;7.30;;;3.40;;
4831;SDS011;2430;51.322;7.864;2022-12-22T12:34:51;2.87;;;2.17;;
4831;SDS011;2430;51.322;7.864;2022-12-22T12:37:25;2.93;;;2.60;;
4831;SDS011;2430;51.322;7.864;2022-12-22T12:39:58;4.17;;;2.67;;
4831;SDS011;2430;51.322;7.864;2022-12-22T12:42:30;7.30;;;2.93;;
4831;SDS011;2430;51.322;7.864;2022-12-22T12:44:57;5.20;;;3.20;;
4831;SDS011;2430;51.322;7.864;2022-12-22T12:47:26;5.73;;;3.10;;
4831;SDS011;2430;51.322;7.864;2022-12-22T12:50:04;4.60;;;3.33;;
4831;SDS011;2430;51.322;7.864;2022-12-22T12:55:24;6.23;;;3.83;;
4831;SDS011;2430;51.322;7.864;2022-12-22T12:57:50;7.70;;;4.90;;
4831;SDS011;2430;51.322;7.864;2022-12-22T13:03:03;14.70;;;4.53;;
4831;SDS011;2430;51.322;7.864;2022-12-22T13:05:30;13.20;;;5.30;;
4831;SDS011;2430;51.322;7.864;2022-12-22T13:11:16;11.50;;;3.87;;
4831;SDS011;2430;51.322;7.864;2022-12-22T13:13:46;5.30;;;4.80;;
4831;SDS011;2430;51.322;7.864;2022-12-22T13:16:21;4.77;;;4.27;;
4831;SDS011;2430;51.322;7.864;2022-12-22T13:18:54;7.43;;;4.60;;
4831;SDS011;2430;51.322;7.864;2022-12-22T13:21:24;7.17;;;4.93;;
4831;SDS011;2430;51.322;7.864;2022-12-22T13:23:56;4.20;;;3.80;;
4831;SDS011;2430;51.322;7.864;2022-12-22T13:26:25;3.80;;;3.13;;
4831;SDS011;2430;51.322;7.864;2022-12-22T13:28:52;4.23;;;3.20;;
4831;SDS011;2430;51.322;7.864;2022-12-22T13:31:20;3.30;;;3.00;;
4831;SDS011;2430;51.322;7.864;2022-12-22T13:33:59;3.40;;;3.10;;
4831;SDS011;2430;51.322;7.864;2022-12-22T13:36:29;3.43;;;2.87;;
4831;SDS011;2430;51.322;7.864;2022-12-22T13:38:57;3.87;;;2.60;;
4831;SDS011;2430;51.322;7.864;2022-12-22T13:41:26;4.03;;;3.40;;
4831;SDS011;2430;51.322;7.864;2022-12-22T13:43:53;6.00;;;3.33;;
4831;SDS011;2430;51.322;7.864;2022-12-22T13:46:21;2.60;;;2.33;;
4831;SDS011;2430;51.322;7.864;2022-12-22T13:48:48;2.67;;;1.90;;
4831;SDS011;2430;51.322;7.864;2022-12-22T13:51:16;4.00;;;2.20;;
4831;SDS011;2430;51.322;7.864;2022-12-22T13:53:44;3.07;;;2.37;;
4831;SDS011;2430;51.322;7.864;2022-12-22T13:56:12;5.00;;;2.57;;
4831;SDS011;2430;51.322;7.864;2022-12-22T13:58:41;5.83;;;2.03;;
4831;SDS011;2430;51.322;7.864;2022-12-22T14:01:13;2.13;;;1.70;;
4831;SDS011;2430;51.322;7.864;2022-12-22T14:03:44;2.53;;;2.27;;
4831;SDS011;2430;51.322;7.864;2022-12-22T14:06:17;2.33;;;1.83;;
4831;SDS011;2430;51.322;7.864;2022-12-22T14:08:44;3.17;;;2.50;;
4831;SDS011;2430;51.322;7.864;2022-12-22T14:11:10;3.10;;;2.30;;
4831;SDS011;2430;51.322;7.864;2022-12-22T14:13:37;2.40;;;2.20;;
4831;SDS011;2430;51.322;7.864;2022-12-22T14:16:06;3.13;;;2.83;;
4831;SDS011;2430;51.322;7.864;2022-12-22T14:18:32;6.10;;;2.90;;
4831;SDS011;2430;51.322;7.864;2022-12-22T14:20:59;2.73;;;2.53;;
4831;SDS011;2430;51.322;7.864;2022-12-22T14:23:26;4.30;;;2.70;;
4831;SDS011;2430;51.322;7.864;2022-12-22T14:25:53;3.17;;;2.90;;
4831;SDS011;2430;51.322;7.864;2022-12-22T14:28:24;2.90;;;2.57;;
4831;SDS011;2430;51.322;7.864;2022-12-22T14:30:52;4.10;;;3.40;;
4831;SDS011;2430;51.322;7.864;2022-12-22T14:33:27;4.13;;;3.40;;
4831;SDS011;2430;51.322;7.864;2022-12-22T14:36:14;4.77;;;3.20;;
4831;SDS011;2430;51.322;7.864;2022-12-22T14:38:41;3.67;;;3.27;;
4831;SDS011;2430;51.322;7.864;2022-12-22T14:41:08;4.67;;;3.87;;
4831;SDS011;2430;51.322;7.864;2022-12-22T14:43:56;4.47;;;3.33;;
4831;SDS011;2430;51.322;7.864;2022-12-22T14:46:23;6.90;;;3.23;;
4831;SDS011;2430;51.322;7.864;2022-12-22T14:48:50;3.67;;;3.03;;
4831;SDS011;2430;51.322;7.864;2022-12-22T14:51:17;4.70;;;4.20;;
4831;SDS011;2430;51.322;7.864;2022-12-22T14:53:44;4.70;;;3.37;;
4831;SDS011;2430;51.322;7.864;2022-12-22T14:56:12;4.13;;;3.70;;
4831;SDS011;2430;51.322;7.864;2022-12-22T14:58:39;4.87;;;3.37;;
4831;SDS011;2430;51.322;7.864;2022-12-22T15:01:17;4.10;;;3.30;;
4831;SDS011;2430;51.322;7.864;2022-12-22T15:03:44;4.10;;;3.20;;
4831;SDS011;2430;51.322;7.864;2022-12-22T15:06:22;5.37;;;4.33;;
4831;SDS011;2430;51.322;7.864;2022-12-22T15:08:49;7.97;;;3.50;;
4831;SDS011;2430;51.322;7.864;2022-12-22T15:11:17;4.10;;;3.23;;
4831;SDS011;2430;51.322;7.864;2022-12-22T15:13:45;3.90;;;3.50;;
4831;SDS011;2430;51.322;7.864;2022-12-22T15:16:13;5.63;;;3.47;;
4831;SDS011;2430;51.322;7.864;2022-12-22T15:18:40;8.53;;;4.67;;
4831;SDS011;2430;51.322;7.864;2022-12-22T15:21:07;5.80;;;3.80;;
4831;SDS011;2430;51.322;7.864;2022-12-22T15:23:39;3.47;;;3.10;;
4831;SDS011;2430;51.322;7.864;2022-12-22T15:26:05;5.20;;;4.30;;
4831;SDS011;2430;51.322;7.864;2022-12-22T15:28:32;5.20;;;4.13;;
4831;SDS011;2430;51.322;7.864;2022-12-22T15:30:58;11.40;;;4.10;;
4831;SDS011;2430;51.322;7.864;2022-12-22T15:33:25;5.37;;;4.00;;
4831;SDS011;2430;51.322;7.864;2022-12-22T15:35:52;6.50;;;3.30;;
4831;SDS011;2430;51.322;7.864;2022-12-22T15:38:19;8.20;;;3.53;;
4831;SDS011;2430;51.322;7.864;2022-12-22T15:40:47;6.83;;;4.07;;
4831;SDS011;2430;51.322;7.864;2022-12-22T15:43:14;8.03;;;4.77;;
4831;SDS011;2430;51.322;7.864;2022-12-22T15:45:41;16.53;;;5.00;;
4831;SDS011;2430;51.322;7.864;2022-12-22T15:48:09;6.30;;;4.60;;
4831;SDS011;2430;51.322;7.864;2022-12-22T15:50:38;5.47;;;4.67;;
4831;SDS011;2430;51.322;7.864;2022-12-22T15:53:05;5.50;;;3.90;;
4831;SDS011;2430;51.322;7.864;2022-12-22T15:55:33;10.00;;;6.10;;
4831;SDS011;2430;51.322;7.864;2022-12-22T15:58:02;9.60;;;6.57;;
4831;SDS011;2430;51.322;7.864;2022-12-22T16:00:29;10.07;;;6.23;;
4831;SDS011;2430;51.322;7.864;2022-12-22T16:02:55;8.67;;;5.50;;
4831;SDS011;2430;51.322;7.864;2022-12-22T16:05:22;9.07;;;5.50;;